sensor_id;sensor_type;location;lat;lon;timestamp;temperature;humidity
25554;DHT22;13446;50.926;5.332;2023-04-03T00:00:13;4.80;99.90
25554;DHT22;13446;50.926;5.332;2023-04-03T00:02:39;4.80;99.90
25554;DHT22;13446;50.926;5.332;2023-04-03T00:05:06;4.80;99.90
25554;DHT22;13446;50.926;5.332;2023-04-03T00:07:31;4.90;99.90
25554;DHT22;13446;50.926;5.332;2023-04-03T00:09:57;4.90;99.90
25554;DHT22;13446;50.926;5.332;2023-04-03T00:12:22;4.90;99.90
25554;DHT22;13446;50.926;5.332;2023-04-03T00:14:48;4.90;99.90
25554;DHT22;13446;50.926;5.332;2023-04-03T00:17:13;5.10;99.90
25554;DHT22;13446;50.926;5.332;2023-04-03T00:19:39;5.00;99.90
25554;DHT22;13446;50.926;5.332;2023-04-03T00:22:05;4.80;99.90
25554;DHT22;13446;50.926;5.332;2023-04-03T00:24:31;4.70;99.90
25554;DHT22;13446;50.926;5.332;2023-04-03T00:26:56;4.60;99.90
25554;DHT22;13446;50.926;5.332;2023-04-03T00:29:22;4.50;99.90
25554;DHT22;13446;50.926;5.332;2023-04-03T00:31:47;4.60;99.90
25554;DHT22;13446;50.926;5.332;2023-04-03T00:34:13;4.50;99.90
25554;DHT22;13446;50.926;5.332;2023-04-03T00:36:38;4.50;99.90
25554;DHT22;13446;50.926;5.332;2023-04-03T00:39:04;4.50;99.90
25554;DHT22;13446;50.926;5.332;2023-04-03T00:41:29;4.50;99.90
25554;DHT22;13446;50.926;5.332;2023-04-03T00:43:55;4.50;99.90
25554;DHT22;13446;50.926;5.332;2023-04-03T00:46:21;4.50;99.90
25554;DHT22;13446;50.926;5.332;2023-04-03T00:48:47;4.50;99.90
25554;DHT22;13446;50.926;5.332;2023-04-03T00:51:14;4.50;99.90
25554;DHT22;13446;50.926;5.332;2023-04-03T00:53:43;4.40;99.90
25554;DHT22;13446;50.926;5.332;2023-04-03T00:56:10;4.40;99.90
25554;DHT22;13446;50.926;5.332;2023-04-03T00:58:37;4.40;99.90
25554;DHT22;13446;50.926;5.332;2023-04-03T01:01:05;4.40;99.90
25554;DHT22;13446;50.926;5.332;2023-04-03T01:03:32;4.30;99.90
25554;DHT22;13446;50.926;5.332;2023-04-03T01:05:57;4.20;99.90
25554;DHT22;13446;50.926;5.332;2023-04-03T01:08:23;4.20;99.90
25554;DHT22;13446;50.926;5.332;2023-04-03T01:10:49;4.10;99.90
25554;DHT22;13446;50.926;5.332;2023-04-03T01:13:25;4.20;99.90
25554;DHT22;13446;50.926;5.332;2023-04-03T01:15:51;4.20;99.90
25554;DHT22;13446;50.926;5.332;2023-04-03T01:18:17;4.20;99.90
25554;DHT22;13446;50.926;5.332;2023-04-03T01:25:38;4.10;99.90
25554;DHT22;13446;50.926;5.332;2023-04-03T01:28:04;4.10;99.90
25554;DHT22;13446;50.926;5.332;2023-04-03T01:30:32;4.10;99.90
25554;DHT22;13446;50.926;5.332;2023-04-03T01:32:58;4.00;99.90
25554;DHT22;13446;50.926;5.332;2023-04-03T01:35:24;4.00;99.90
25554;DHT22;13446;50.926;5.332;2023-04-03T01:37:49;4.00;99.90
25554;DHT22;13446;50.926;5.332;2023-04-03T01:40:15;4.10;99.90
25554;DHT22;13446;50.926;5.332;2023-04-03T01:42:40;4.10;99.90
25554;DHT22;13446;50.926;5.332;2023-04-03T01:45:06;4.00;99.90
25554;DHT22;13446;50.926;5.332;2023-04-03T01:47:32;4.10;99.90
25554;DHT22;13446;50.926;5.332;2023-04-03T01:49:58;4.00;99.90
25554;DHT22;13446;50.926;5.332;2023-04-03T01:52:23;4.00;99.90
25554;DHT22;13446;50.926;5.332;2023-04-03T01:54:49;4.00;99.90
25554;DHT22;13446;50.926;5.332;2023-04-03T01:57:15;4.00;99.90
25554;DHT22;13446;50.926;5.332;2023-04-03T01:59:41;4.00;99.90
25554;DHT22;13446;50.926;5.332;2023-04-03T02:02:06;4.10;99.90
25554;DHT22;13446;50.926;5.332;2023-04-03T02:04:32;4.00;99.90
25554;DHT22;13446;50.926;5.332;2023-04-03T02:06:58;4.00;99.90
25554;DHT22;13446;50.926;5.332;2023-04-03T02:09:23;3.90;99.90
25554;DHT22;13446;50.926;5.332;2023-04-03T02:11:49;3.90;99.90
25554;DHT22;13446;50.926;5.332;2023-04-03T02:14:14;3.90;99.90
25554;DHT22;13446;50.926;5.332;2023-04-03T02:16:40;4.00;99.90
25554;DHT22;13446;50.926;5.332;2023-04-03T02:19:06;4.00;99.90
25554;DHT22;13446;50.926;5.332;2023-04-03T02:21:31;3.90;99.90
25554;DHT22;13446;50.926;5.332;2023-04-03T02:23:57;3.80;99.90
25554;DHT22;13446;50.926;5.332;2023-04-03T02:26:23;3.80;99.90
25554;DHT22;13446;50.926;5.332;2023-04-03T02:28:48;3.80;99.90
25554;DHT22;13446;50.926;5.332;2023-04-03T02:31:14;3.70;99.90
25554;DHT22;13446;50.926;5.332;2023-04-03T02:33:39;3.70;99.90
25554;DHT22;13446;50.926;5.332;2023-04-03T02:36:05;3.70;99.90
25554;DHT22;13446;50.926;5.332;2023-04-03T02:38:32;3.70;99.90
25554;DHT22;13446;50.926;5.332;2023-04-03T02:41:01;3.60;99.90
25554;DHT22;13446;50.926;5.332;2023-04-03T02:43:27;3.60;99.90
25554;DHT22;13446;50.926;5.332;2023-04-03T02:45:52;3.50;99.90
25554;DHT22;13446;50.926;5.332;2023-04-03T02:48:18;3.60;99.90
25554;DHT22;13446;50.926;5.332;2023-04-03T02:50:43;3.50;99.90
25554;DHT22;13446;50.926;5.332;2023-04-03T02:53:09;3.50;99.90
25554;DHT22;13446;50.926;5.332;2023-04-03T02:55:35;3.60;99.90
25554;DHT22;13446;50.926;5.332;2023-04-03T02:58:00;3.60;99.90
25554;DHT22;13446;50.926;5.332;2023-04-03T03:00:26;3.60;99.90
25554;DHT22;13446;50.926;5.332;2023-04-03T03:02:51;3.50;99.90
25554;DHT22;13446;50.926;5.332;2023-04-03T03:05:17;3.50;99.90
25554;DHT22;13446;50.926;5.332;2023-04-03T03:07:42;3.60;99.90
25554;DHT22;13446;50.926;5.332;2023-04-03T03:10:08;3.50;99.90
25554;DHT22;13446;50.926;5.332;2023-04-03T03:12:33;3.40;99.90
25554;DHT22;13446;50.926;5.332;2023-04-03T03:14:59;3.40;99.90
25554;DHT22;13446;50.926;5.332;2023-04-03T03:17:25;3.40;99.90
25554;DHT22;13446;50.926;5.332;2023-04-03T03:19:50;3.40;99.90
25554;DHT22;13446;50.926;5.332;2023-04-03T03:22:16;3.40;99.90
25554;DHT22;13446;50.926;5.332;2023-04-03T03:24:41;3.40;99.90
25554;DHT22;13446;50.926;5.332;2023-04-03T03:27:07;3.50;99.90
25554;DHT22;13446;50.926;5.332;2023-04-03T03:29:33;3.40;99.90
25554;DHT22;13446;50.926;5.332;2023-04-03T03:31:58;3.40;99.90
25554;DHT22;13446;50.926;5.332;2023-04-03T03:34:24;3.30;99.90
25554;DHT22;13446;50.926;5.332;2023-04-03T03:36:49;3.40;99.90
25554;DHT22;13446;50.926;5.332;2023-04-03T03:39:15;3.40;99.90
25554;DHT22;13446;50.926;5.332;2023-04-03T03:41:41;3.40;99.90
25554;DHT22;13446;50.926;5.332;2023-04-03T03:44:06;3.40;99.90
25554;DHT22;13446;50.926;5.332;2023-04-03T03:46:32;3.30;99.90
25554;DHT22;13446;50.926;5.332;2023-04-03T03:48:57;3.20;99.90
25554;DHT22;13446;50.926;5.332;2023-04-03T03:51:23;3.20;99.90
25554;DHT22;13446;50.926;5.332;2023-04-03T03:53:49;3.20;99.90
25554;DHT22;13446;50.926;5.332;2023-04-03T03:56:14;3.20;99.90
25554;DHT22;13446;50.926;5.332;2023-04-03T03:58:40;3.30;99.90
25554;DHT22;13446;50.926;5.332;2023-04-03T04:01:06;3.30;99.90
25554;DHT22;13446;50.926;5.332;2023-04-03T04:03:31;3.30;99.90
25554;DHT22;13446;50.926;5.332;2023-04-03T04:05:57;3.20;99.90
25554;DHT22;13446;50.926;5.332;2023-04-03T04:08:23;3.20;99.90
25554;DHT22;13446;50.926;5.332;2023-04-03T04:10:48;3.20;99.90
25554;DHT22;13446;50.926;5.332;2023-04-03T04:13:14;3.20;99.90
25554;DHT22;13446;50.926;5.332;2023-04-03T04:15:40;3.10;99.90
25554;DHT22;13446;50.926;5.332;2023-04-03T04:18:05;3.10;99.90
25554;DHT22;13446;50.926;5.332;2023-04-03T04:20:31;3.10;99.90
25554;DHT22;13446;50.926;5.332;2023-04-03T04:22:57;3.10;99.90
25554;DHT22;13446;50.926;5.332;2023-04-03T04:25:22;3.10;99.90
25554;DHT22;13446;50.926;5.332;2023-04-03T04:27:48;3.00;99.90
25554;DHT22;13446;50.926;5.332;2023-04-03T04:30:13;3.00;99.90
25554;DHT22;13446;50.926;5.332;2023-04-03T04:32:39;3.10;99.90
25554;DHT22;13446;50.926;5.332;2023-04-03T04:35:06;3.20;99.90
25554;DHT22;13446;50.926;5.332;2023-04-03T04:37:32;3.20;99.90
25554;DHT22;13446;50.926;5.332;2023-04-03T04:39:57;3.20;99.90
25554;DHT22;13446;50.926;5.332;2023-04-03T04:42:23;3.10;99.90
25554;DHT22;13446;50.926;5.332;2023-04-03T04:44:48;3.20;99.90
25554;DHT22;13446;50.926;5.332;2023-04-03T04:47:14;3.20;99.90
25554;DHT22;13446;50.926;5.332;2023-04-03T04:49:40;3.20;99.90
25554;DHT22;13446;50.926;5.332;2023-04-03T04:52:05;3.20;99.90
25554;DHT22;13446;50.926;5.332;2023-04-03T04:54:31;3.20;99.90
25554;DHT22;13446;50.926;5.332;2023-04-03T04:56:59;3.30;99.90
25554;DHT22;13446;50.926;5.332;2023-04-03T04:59:25;3.20;99.90
25554;DHT22;13446;50.926;5.332;2023-04-03T05:01:51;3.10;99.90
25554;DHT22;13446;50.926;5.332;2023-04-03T05:04:16;3.00;99.90
25554;DHT22;13446;50.926;5.332;2023-04-03T05:06:42;3.00;99.90
25554;DHT22;13446;50.926;5.332;2023-04-03T05:09:08;3.00;99.90
25554;DHT22;13446;50.926;5.332;2023-04-03T05:11:35;3.00;99.90
25554;DHT22;13446;50.926;5.332;2023-04-03T05:14:00;3.10;99.90
25554;DHT22;13446;50.926;5.332;2023-04-03T05:16:26;3.00;99.90
25554;DHT22;13446;50.926;5.332;2023-04-03T05:18:51;3.00;99.90
25554;DHT22;13446;50.926;5.332;2023-04-03T05:21:17;2.90;99.90
25554;DHT22;13446;50.926;5.332;2023-04-03T05:23:43;2.90;99.90
25554;DHT22;13446;50.926;5.332;2023-04-03T05:26:09;3.00;99.90
25554;DHT22;13446;50.926;5.332;2023-04-03T05:28:35;2.90;99.90
25554;DHT22;13446;50.926;5.332;2023-04-03T05:31:00;3.00;99.90
25554;DHT22;13446;50.926;5.332;2023-04-03T05:33:26;3.00;99.90
25554;DHT22;13446;50.926;5.332;2023-04-03T05:35:52;3.00;99.90
25554;DHT22;13446;50.926;5.332;2023-04-03T05:38:18;3.10;99.90
25554;DHT22;13446;50.926;5.332;2023-04-03T05:40:43;3.20;99.90
25554;DHT22;13446;50.926;5.332;2023-04-03T05:43:09;3.20;99.90
25554;DHT22;13446;50.926;5.332;2023-04-03T05:45:35;3.10;99.90
25554;DHT22;13446;50.926;5.332;2023-04-03T05:48:01;3.00;99.90
25554;DHT22;13446;50.926;5.332;2023-04-03T05:50:26;3.00;99.90
25554;DHT22;13446;50.926;5.332;2023-04-03T05:52:52;3.10;99.90
25554;DHT22;13446;50.926;5.332;2023-04-03T05:55:18;3.10;99.90
25554;DHT22;13446;50.926;5.332;2023-04-03T05:57:44;3.20;99.90
25554;DHT22;13446;50.926;5.332;2023-04-03T06:00:11;3.30;99.90
25554;DHT22;13446;50.926;5.332;2023-04-03T06:02:38;3.60;99.90
25554;DHT22;13446;50.926;5.332;2023-04-03T06:05:04;4.40;99.90
25554;DHT22;13446;50.926;5.332;2023-04-03T06:07:29;5.50;99.90
25554;DHT22;13446;50.926;5.332;2023-04-03T06:09:55;6.70;99.90
25554;DHT22;13446;50.926;5.332;2023-04-03T06:12:21;7.40;99.90
25554;DHT22;13446;50.926;5.332;2023-04-03T06:14:47;8.30;99.90
25554;DHT22;13446;50.926;5.332;2023-04-03T06:17:14;9.10;99.90
25554;DHT22;13446;50.926;5.332;2023-04-03T06:19:40;9.80;99.90
25554;DHT22;13446;50.926;5.332;2023-04-03T06:22:06;10.70;99.90
25554;DHT22;13446;50.926;5.332;2023-04-03T06:24:31;11.20;99.90
25554;DHT22;13446;50.926;5.332;2023-04-03T06:26:57;11.80;99.90
25554;DHT22;13446;50.926;5.332;2023-04-03T06:29:23;12.30;99.90
25554;DHT22;13446;50.926;5.332;2023-04-03T06:31:49;13.30;99.90
25554;DHT22;13446;50.926;5.332;2023-04-03T06:34:15;13.80;98.30
25554;DHT22;13446;50.926;5.332;2023-04-03T06:36:40;14.10;96.60
25554;DHT22;13446;50.926;5.332;2023-04-03T06:39:06;14.50;93.00
25554;DHT22;13446;50.926;5.332;2023-04-03T06:41:32;14.00;93.70
25554;DHT22;13446;50.926;5.332;2023-04-03T06:43:57;14.60;92.70
25554;DHT22;13446;50.926;5.332;2023-04-03T06:46:24;14.90;91.20
25554;DHT22;13446;50.926;5.332;2023-04-03T06:48:50;15.20;91.80
25554;DHT22;13446;50.926;5.332;2023-04-03T06:51:23;15.10;83.80
25554;DHT22;13446;50.926;5.332;2023-04-03T06:53:51;14.90;81.60
25554;DHT22;13446;50.926;5.332;2023-04-03T06:56:17;14.90;84.20
25554;DHT22;13446;50.926;5.332;2023-04-03T06:58:43;15.30;82.70
25554;DHT22;13446;50.926;5.332;2023-04-03T07:01:09;14.70;81.40
25554;DHT22;13446;50.926;5.332;2023-04-03T07:03:36;15.50;81.30
25554;DHT22;13446;50.926;5.332;2023-04-03T07:06:02;16.00;79.10
25554;DHT22;13446;50.926;5.332;2023-04-03T07:08:28;16.30;75.40
25554;DHT22;13446;50.926;5.332;2023-04-03T07:10:54;16.10;74.10
25554;DHT22;13446;50.926;5.332;2023-04-03T07:13:20;16.30;72.00
25554;DHT22;13446;50.926;5.332;2023-04-03T07:15:45;17.00;70.40
25554;DHT22;13446;50.926;5.332;2023-04-03T07:18:11;16.60;66.30
25554;DHT22;13446;50.926;5.332;2023-04-03T07:20:36;16.30;68.00
25554;DHT22;13446;50.926;5.332;2023-04-03T07:23:03;16.40;69.50
25554;DHT22;13446;50.926;5.332;2023-04-03T07:25:29;16.90;67.90
25554;DHT22;13446;50.926;5.332;2023-04-03T07:27:55;16.90;66.10
25554;DHT22;13446;50.926;5.332;2023-04-03T07:30:21;17.90;61.90
25554;DHT22;13446;50.926;5.332;2023-04-03T07:32:46;17.40;60.30
25554;DHT22;13446;50.926;5.332;2023-04-03T07:35:12;17.00;62.50
25554;DHT22;13446;50.926;5.332;2023-04-03T07:37:37;17.80;60.50
25554;DHT22;13446;50.926;5.332;2023-04-03T07:40:03;18.90;59.40
25554;DHT22;13446;50.926;5.332;2023-04-03T07:42:29;18.80;55.80
25554;DHT22;13446;50.926;5.332;2023-04-03T07:44:55;18.50;55.70
25554;DHT22;13446;50.926;5.332;2023-04-03T07:47:21;19.20;54.50
25554;DHT22;13446;50.926;5.332;2023-04-03T07:49:47;19.40;53.80
25554;DHT22;13446;50.926;5.332;2023-04-03T07:52:13;19.80;53.90
25554;DHT22;13446;50.926;5.332;2023-04-03T07:54:40;20.40;51.30
25554;DHT22;13446;50.926;5.332;2023-04-03T07:57:06;20.60;49.60
25554;DHT22;13446;50.926;5.332;2023-04-03T07:59:32;20.40;47.90
25554;DHT22;13446;50.926;5.332;2023-04-03T08:01:57;20.60;49.60
25554;DHT22;13446;50.926;5.332;2023-04-03T08:04:23;20.00;47.70
25554;DHT22;13446;50.926;5.332;2023-04-03T08:06:48;19.40;48.30
25554;DHT22;13446;50.926;5.332;2023-04-03T08:09:15;19.60;48.90
25554;DHT22;13446;50.926;5.332;2023-04-03T08:11:41;19.00;49.00
25554;DHT22;13446;50.926;5.332;2023-04-03T08:14:06;19.20;49.90
25554;DHT22;13446;50.926;5.332;2023-04-03T08:16:32;19.30;49.80
25554;DHT22;13446;50.926;5.332;2023-04-03T08:18:58;20.10;48.10
25554;DHT22;13446;50.926;5.332;2023-04-03T08:21:23;19.40;48.30
25554;DHT22;13446;50.926;5.332;2023-04-03T08:23:49;19.80;47.60
25554;DHT22;13446;50.926;5.332;2023-04-03T08:26:16;20.50;47.50
25554;DHT22;13446;50.926;5.332;2023-04-03T08:28:42;20.70;45.80
25554;DHT22;13446;50.926;5.332;2023-04-03T08:31:10;21.20;44.20
25554;DHT22;13446;50.926;5.332;2023-04-03T08:33:36;20.50;44.70
25554;DHT22;13446;50.926;5.332;2023-04-03T08:36:03;20.20;45.90
25554;DHT22;13446;50.926;5.332;2023-04-03T08:38:29;21.00;46.60
25554;DHT22;13446;50.926;5.332;2023-04-03T08:41:02;21.90;43.80
25554;DHT22;13446;50.926;5.332;2023-04-03T08:45:55;22.30;43.20
25554;DHT22;13446;50.926;5.332;2023-04-03T08:48:24;22.00;42.60
25554;DHT22;13446;50.926;5.332;2023-04-03T08:50:59;21.90;41.80
25554;DHT22;13446;50.926;5.332;2023-04-03T08:53:29;22.00;41.60
25554;DHT22;13446;50.926;5.332;2023-04-03T08:55:57;22.00;40.60
25554;DHT22;13446;50.926;5.332;2023-04-03T08:58:30;22.80;40.10
25554;DHT22;13446;50.926;5.332;2023-04-03T09:01:06;23.80;38.00
25554;DHT22;13446;50.926;5.332;2023-04-03T09:03:34;22.50;38.70
25554;DHT22;13446;50.926;5.332;2023-04-03T09:06:14;22.10;39.10
25554;DHT22;13446;50.926;5.332;2023-04-03T09:16:25;22.60;38.10
25554;DHT22;13446;50.926;5.332;2023-04-03T09:18:55;22.80;38.30
25554;DHT22;13446;50.926;5.332;2023-04-03T09:21:31;22.80;36.90
25554;DHT22;13446;50.926;5.332;2023-04-03T09:23:58;23.50;36.10
25554;DHT22;13446;50.926;5.332;2023-04-03T09:26:25;23.80;37.00
25554;DHT22;13446;50.926;5.332;2023-04-03T09:28:58;24.90;34.40
25554;DHT22;13446;50.926;5.332;2023-04-03T09:31:26;25.40;35.20
25554;DHT22;13446;50.926;5.332;2023-04-03T09:33:53;24.50;34.30
25554;DHT22;13446;50.926;5.332;2023-04-03T09:39:04;24.10;34.20
25554;DHT22;13446;50.926;5.332;2023-04-03T09:41:32;23.40;35.40
25554;DHT22;13446;50.926;5.332;2023-04-03T09:43:58;23.90;33.60
25554;DHT22;13446;50.926;5.332;2023-04-03T09:46:33;23.50;32.00
25554;DHT22;13446;50.926;5.332;2023-04-03T09:49:03;23.10;33.20
25554;DHT22;13446;50.926;5.332;2023-04-03T09:51:29;23.50;33.40
25554;DHT22;13446;50.926;5.332;2023-04-03T09:53:56;22.50;34.00
25554;DHT22;13446;50.926;5.332;2023-04-03T09:56:23;22.00;35.30
25554;DHT22;13446;50.926;5.332;2023-04-03T09:58:52;22.90;35.30
25554;DHT22;13446;50.926;5.332;2023-04-03T10:01:29;22.80;35.40
25554;DHT22;13446;50.926;5.332;2023-04-03T10:06:42;22.10;34.00
25554;DHT22;13446;50.926;5.332;2023-04-03T10:14:34;22.20;33.40
25554;DHT22;13446;50.926;5.332;2023-04-03T10:19:55;23.80;30.00
25554;DHT22;13446;50.926;5.332;2023-04-03T10:30:29;24.00;27.70
25554;DHT22;13446;50.926;5.332;2023-04-03T10:35:36;22.70;27.00
25554;DHT22;13446;50.926;5.332;2023-04-03T10:40:35;22.70;27.60
25554;DHT22;13446;50.926;5.332;2023-04-03T10:48:24;22.00;29.00
25554;DHT22;13446;50.926;5.332;2023-04-03T10:58:33;22.50;26.70
25554;DHT22;13446;50.926;5.332;2023-04-03T11:01:06;23.00;27.20
25554;DHT22;13446;50.926;5.332;2023-04-03T11:03:35;23.00;26.60
25554;DHT22;13446;50.926;5.332;2023-04-03T11:06:02;23.20;26.60
25554;DHT22;13446;50.926;5.332;2023-04-03T11:11:11;23.50;25.50
25554;DHT22;13446;50.926;5.332;2023-04-03T11:14:11;23.40;27.00
25554;DHT22;13446;50.926;5.332;2023-04-03T11:16:30;23.50;26.30
25554;DHT22;13446;50.926;5.332;2023-04-03T11:24:46;22.40;25.20
25554;DHT22;13446;50.926;5.332;2023-04-03T11:27:19;21.90;25.70
25554;DHT22;13446;50.926;5.332;2023-04-03T11:29:47;21.60;26.60
25554;DHT22;13446;50.926;5.332;2023-04-03T11:32:25;22.00;26.70
25554;DHT22;13446;50.926;5.332;2023-04-03T11:34:53;21.60;26.80
25554;DHT22;13446;50.926;5.332;2023-04-03T11:37:27;21.10;26.70
25554;DHT22;13446;50.926;5.332;2023-04-03T11:39:58;21.30;27.30
25554;DHT22;13446;50.926;5.332;2023-04-03T11:45:05;21.70;28.90
25554;DHT22;13446;50.926;5.332;2023-04-03T11:47:45;22.30;26.80
25554;DHT22;13446;50.926;5.332;2023-04-03T11:52:56;21.80;26.40
25554;DHT22;13446;50.926;5.332;2023-04-03T12:08:44;23.00;26.30
25554;DHT22;13446;50.926;5.332;2023-04-03T12:21:12;22.20;27.60
25554;DHT22;13446;50.926;5.332;2023-04-03T12:26:24;21.90;26.90
25554;DHT22;13446;50.926;5.332;2023-04-03T12:28:51;20.50;27.60
25554;DHT22;13446;50.926;5.332;2023-04-03T12:31:19;20.00;27.90
25554;DHT22;13446;50.926;5.332;2023-04-03T12:36:26;20.60;28.00
25554;DHT22;13446;50.926;5.332;2023-04-03T12:39:05;19.90;27.80
25554;DHT22;13446;50.926;5.332;2023-04-03T12:46:28;19.60;29.00
25554;DHT22;13446;50.926;5.332;2023-04-03T12:48:58;20.30;29.30
25554;DHT22;13446;50.926;5.332;2023-04-03T12:51:34;20.50;28.60
25554;DHT22;13446;50.926;5.332;2023-04-03T12:54:03;20.30;28.20
25554;DHT22;13446;50.926;5.332;2023-04-03T12:56:30;19.80;28.70
25554;DHT22;13446;50.926;5.332;2023-04-03T12:59:13;19.40;29.60
25554;DHT22;13446;50.926;5.332;2023-04-03T13:01:38;19.70;29.60
25554;DHT22;13446;50.926;5.332;2023-04-03T13:04:04;19.40;29.10
25554;DHT22;13446;50.926;5.332;2023-04-03T13:06:32;20.20;29.20
25554;DHT22;13446;50.926;5.332;2023-04-03T13:08:59;19.60;30.10
25554;DHT22;13446;50.926;5.332;2023-04-03T13:11:34;20.10;29.50
25554;DHT22;13446;50.926;5.332;2023-04-03T13:14:02;19.40;30.00
25554;DHT22;13446;50.926;5.332;2023-04-03T13:16:28;19.20;30.40
25554;DHT22;13446;50.926;5.332;2023-04-03T13:18:55;19.50;30.10
25554;DHT22;13446;50.926;5.332;2023-04-03T13:21:21;20.00;31.10
25554;DHT22;13446;50.926;5.332;2023-04-03T13:23:50;20.10;30.80
25554;DHT22;13446;50.926;5.332;2023-04-03T13:26:16;19.80;29.60
25554;DHT22;13446;50.926;5.332;2023-04-03T13:28:42;19.30;29.70
25554;DHT22;13446;50.926;5.332;2023-04-03T13:31:17;19.60;30.00
25554;DHT22;13446;50.926;5.332;2023-04-03T13:36:23;18.30;32.60
25554;DHT22;13446;50.926;5.332;2023-04-03T13:39:55;17.70;33.40
25554;DHT22;13446;50.926;5.332;2023-04-03T13:41:47;17.80;34.20
25554;DHT22;13446;50.926;5.332;2023-04-03T13:46:51;17.60;33.90
25554;DHT22;13446;50.926;5.332;2023-04-03T13:49:22;17.20;33.90
25554;DHT22;13446;50.926;5.332;2023-04-03T13:51:48;16.70;35.00
25554;DHT22;13446;50.926;5.332;2023-04-03T13:54:19;15.80;36.90
25554;DHT22;13446;50.926;5.332;2023-04-03T13:56:45;15.30;37.90
25554;DHT22;13446;50.926;5.332;2023-04-03T14:04:20;14.40;40.60
25554;DHT22;13446;50.926;5.332;2023-04-03T14:06:46;14.30;41.40
25554;DHT22;13446;50.926;5.332;2023-04-03T14:09:13;14.10;40.90
25554;DHT22;13446;50.926;5.332;2023-04-03T14:11:39;14.10;41.10
25554;DHT22;13446;50.926;5.332;2023-04-03T14:14:09;13.70;40.10
25554;DHT22;13446;50.926;5.332;2023-04-03T14:16:37;13.40;39.90
25554;DHT22;13446;50.926;5.332;2023-04-03T14:19:03;13.00;41.30
25554;DHT22;13446;50.926;5.332;2023-04-03T14:21:28;13.00;41.90
25554;DHT22;13446;50.926;5.332;2023-04-03T14:23:54;13.10;42.40
25554;DHT22;13446;50.926;5.332;2023-04-03T14:26:22;13.10;42.70
25554;DHT22;13446;50.926;5.332;2023-04-03T14:28:49;13.00;42.60
25554;DHT22;13446;50.926;5.332;2023-04-03T14:31:15;13.00;42.70
25554;DHT22;13446;50.926;5.332;2023-04-03T14:33:41;13.00;42.30
25554;DHT22;13446;50.926;5.332;2023-04-03T14:36:14;12.80;42.60
25554;DHT22;13446;50.926;5.332;2023-04-03T14:38:40;12.90;42.50
25554;DHT22;13446;50.926;5.332;2023-04-03T14:41:06;12.90;42.50
25554;DHT22;13446;50.926;5.332;2023-04-03T14:43:32;13.00;42.40
25554;DHT22;13446;50.926;5.332;2023-04-03T14:45:58;12.70;42.30
25554;DHT22;13446;50.926;5.332;2023-04-03T14:48:24;12.50;43.50
25554;DHT22;13446;50.926;5.332;2023-04-03T14:50:51;12.70;42.80
25554;DHT22;13446;50.926;5.332;2023-04-03T14:53:18;12.50;42.90
25554;DHT22;13446;50.926;5.332;2023-04-03T14:55:48;12.40;43.50
25554;DHT22;13446;50.926;5.332;2023-04-03T14:58:14;12.30;43.80
25554;DHT22;13446;50.926;5.332;2023-04-03T15:00:40;12.30;44.00
25554;DHT22;13446;50.926;5.332;2023-04-03T15:03:08;12.50;45.30
25554;DHT22;13446;50.926;5.332;2023-04-03T15:05:36;12.30;46.10
25554;DHT22;13446;50.926;5.332;2023-04-03T15:08:02;12.30;45.80
25554;DHT22;13446;50.926;5.332;2023-04-03T15:10:29;12.30;45.10
25554;DHT22;13446;50.926;5.332;2023-04-03T15:12:55;12.30;44.90
25554;DHT22;13446;50.926;5.332;2023-04-03T15:15:22;12.40;45.10
25554;DHT22;13446;50.926;5.332;2023-04-03T15:17:50;12.40;45.10
25554;DHT22;13446;50.926;5.332;2023-04-03T15:20:20;12.50;45.50
25554;DHT22;13446;50.926;5.332;2023-04-03T15:22:45;12.40;45.30
25554;DHT22;13446;50.926;5.332;2023-04-03T15:25:11;12.40;45.60
25554;DHT22;13446;50.926;5.332;2023-04-03T15:27:37;12.30;45.50
25554;DHT22;13446;50.926;5.332;2023-04-03T15:30:04;12.20;46.50
25554;DHT22;13446;50.926;5.332;2023-04-03T15:32:30;12.30;46.90
25554;DHT22;13446;50.926;5.332;2023-04-03T15:34:56;12.20;46.60
25554;DHT22;13446;50.926;5.332;2023-04-03T15:37:22;12.30;47.00
25554;DHT22;13446;50.926;5.332;2023-04-03T15:39:47;12.30;47.00
25554;DHT22;13446;50.926;5.332;2023-04-03T15:42:13;12.30;47.30
25554;DHT22;13446;50.926;5.332;2023-04-03T15:44:38;12.20;46.60
25554;DHT22;13446;50.926;5.332;2023-04-03T15:47:04;12.30;45.80
25554;DHT22;13446;50.926;5.332;2023-04-03T15:49:30;12.40;45.80
25554;DHT22;13446;50.926;5.332;2023-04-03T15:51:58;12.40;46.80
25554;DHT22;13446;50.926;5.332;2023-04-03T15:54:23;12.40;46.20
25554;DHT22;13446;50.926;5.332;2023-04-03T15:56:50;12.30;45.70
25554;DHT22;13446;50.926;5.332;2023-04-03T15:59:16;12.20;46.00
25554;DHT22;13446;50.926;5.332;2023-04-03T16:01:42;12.10;46.70
25554;DHT22;13446;50.926;5.332;2023-04-03T16:04:08;12.00;47.20
25554;DHT22;13446;50.926;5.332;2023-04-03T16:06:34;12.20;47.10
25554;DHT22;13446;50.926;5.332;2023-04-03T16:09:01;12.00;45.90
25554;DHT22;13446;50.926;5.332;2023-04-03T16:11:26;11.80;46.30
25554;DHT22;13446;50.926;5.332;2023-04-03T16:13:53;11.80;47.00
25554;DHT22;13446;50.926;5.332;2023-04-03T16:16:18;11.80;47.70
25554;DHT22;13446;50.926;5.332;2023-04-03T16:18:44;11.90;46.80
25554;DHT22;13446;50.926;5.332;2023-04-03T16:21:12;12.00;46.10
25554;DHT22;13446;50.926;5.332;2023-04-03T16:23:39;11.90;46.40
25554;DHT22;13446;50.926;5.332;2023-04-03T16:26:04;11.80;45.90
25554;DHT22;13446;50.926;5.332;2023-04-03T16:28:30;11.50;46.60
25554;DHT22;13446;50.926;5.332;2023-04-03T16:30:56;11.40;47.70
25554;DHT22;13446;50.926;5.332;2023-04-03T16:33:22;11.40;48.30
25554;DHT22;13446;50.926;5.332;2023-04-03T16:35:48;11.60;48.60
25554;DHT22;13446;50.926;5.332;2023-04-03T16:38:14;11.70;47.50
25554;DHT22;13446;50.926;5.332;2023-04-03T16:40:41;11.70;47.90
25554;DHT22;13446;50.926;5.332;2023-04-03T16:43:07;11.70;47.60
25554;DHT22;13446;50.926;5.332;2023-04-03T16:45:32;11.60;48.00
25554;DHT22;13446;50.926;5.332;2023-04-03T16:47:58;11.50;48.10
25554;DHT22;13446;50.926;5.332;2023-04-03T16:50:23;11.60;47.20
25554;DHT22;13446;50.926;5.332;2023-04-03T16:52:49;11.40;47.10
25554;DHT22;13446;50.926;5.332;2023-04-03T16:55:15;11.10;47.40
25554;DHT22;13446;50.926;5.332;2023-04-03T16:57:40;11.00;49.10
25554;DHT22;13446;50.926;5.332;2023-04-03T17:00:06;11.00;48.80
25554;DHT22;13446;50.926;5.332;2023-04-03T17:02:32;11.00;49.50
25554;DHT22;13446;50.926;5.332;2023-04-03T17:04:58;10.90;49.20
25554;DHT22;13446;50.926;5.332;2023-04-03T17:07:24;11.00;49.30
25554;DHT22;13446;50.926;5.332;2023-04-03T17:09:51;11.10;48.70
25554;DHT22;13446;50.926;5.332;2023-04-03T17:12:18;11.00;48.80
25554;DHT22;13446;50.926;5.332;2023-04-03T17:14:44;11.00;49.10
25554;DHT22;13446;50.926;5.332;2023-04-03T17:17:10;11.00;49.80
25554;DHT22;13446;50.926;5.332;2023-04-03T17:19:36;10.90;49.60
25554;DHT22;13446;50.926;5.332;2023-04-03T17:22:02;10.80;50.30
25554;DHT22;13446;50.926;5.332;2023-04-03T17:24:28;10.70;50.50
25554;DHT22;13446;50.926;5.332;2023-04-03T17:26:53;10.70;50.30